Time;durP1;ratioP1;P1;durP2;ratioP2;P2;SDS_P1;SDS_P2;PMS_P1;PMS_P2;Temp;Humidity;BMP_temperature;BMP_pressure;BME280_temperature;BME280_humidity;BME280_pressure;Samples;Min_cycle;Max_cycle;Signal;HPM_P1;HPM_P2
2019/10/30 00:00:07;;;;;;;30.05;23.55;;;;;;;6.39;100;95844.11;;;;
2019/10/30 00:01:10;;;;;;;30.05;23.55;;;;;;;6.39;100;95844.11;;;;
2019/10/30 00:02:11;;;;;;;28.9;21.4;;;;;;;6.4;100;95844.86;;;;
2019/10/30 00:03:12;;;;;;;28.9;21.4;;;;;;;6.4;100;95844.86;;;;
2019/10/30 00:04:14;;;;;;;28.9;21.4;;;;;;;6.4;100;95844.86;;;;
2019/10/30 00:05:15;;;;;;;28.9;21.4;;;;;;;6.4;100;95844.86;;;;
2019/10/30 00:06:16;;;;;;;28.9;21.4;;;;;;;6.4;100;95844.86;;;;
2019/10/30 00:07:17;;;;;;;28.9;21.4;;;;;;;6.4;100;95844.86;;;;
2019/10/30 00:08:19;;;;;;;28.9;21.4;;;;;;;6.4;100;95844.86;;;;
2019/10/30 00:09:20;;;;;;;28.9;21.4;;;;;;;6.4;100;95844.86;;;;
2019/10/30 00:10:21;;;;;;;28.9;21.4;;;;;;;6.4;100;95844.86;;;;
2019/10/30 00:11:22;;;;;;;28.9;21.4;;;;;;;6.4;100;95844.86;;;;
2019/10/30 00:12:23;;;;;;;28.85;21.15;;;;;;;6.35;100;95811.99;;;;
2019/10/30 00:13:24;;;;;;;28.85;21.15;;;;;;;6.35;100;95811.99;;;;
2019/10/30 00:14:26;;;;;;;28.85;21.15;;;;;;;6.35;100;95811.99;;;;
2019/10/30 00:15:27;;;;;;;28.85;21.15;;;;;;;6.35;100;95811.99;;;;
2019/10/30 00:16:28;;;;;;;28.85;21.15;;;;;;;6.35;100;95811.99;;;;
2019/10/30 00:17:29;;;;;;;28.85;21.15;;;;;;;6.35;100;95811.99;;;;
2019/10/30 00:18:30;;;;;;;28.85;21.15;;;;;;;6.35;100;95811.99;;;;
2019/10/30 00:19:31;;;;;;;28.85;21.15;;;;;;;6.35;100;95811.99;;;;
2019/10/30 00:20:32;;;;;;;28.85;21.15;;;;;;;6.35;100;95811.99;;;;
2019/10/30 00:21:34;;;;;;;28.85;21.15;;;;;;;6.35;100;95811.99;;;;
2019/10/30 00:22:35;;;;;;;28.85;21.15;;;;;;;6.35;100;95811.99;;;;
2019/10/30 00:23:36;;;;;;;28.8;21.4;;;;;;;6.38;100;95827.71;;;;
2019/10/30 00:24:37;;;;;;;28.8;21.4;;;;;;;6.38;100;95827.71;;;;
2019/10/30 00:25:38;;;;;;;28.8;21.4;;;;;;;6.38;100;95827.71;;;;
2019/10/30 00:26:39;;;;;;;28.8;21.4;;;;;;;6.38;100;95827.71;;;;
2019/10/30 00:27:40;;;;;;;28.8;21.4;;;;;;;6.38;100;95827.71;;;;
2019/10/30 00:28:41;;;;;;;28.8;21.4;;;;;;;6.38;100;95827.71;;;;
2019/10/30 00:29:42;;;;;;;28.8;21.4;;;;;;;6.38;100;95827.71;;;;
2019/10/30 00:30:44;;;;;;;28.8;21.4;;;;;;;6.38;100;95827.71;;;;
2019/10/30 00:31:45;;;;;;;28.8;21.4;;;;;;;6.38;100;95827.71;;;;
2019/10/30 00:32:46;;;;;;;28.8;21.4;;;;;;;6.38;100;95827.71;;;;
2019/10/30 00:33:47;;;;;;;31.75;22.85;;;;;;;6.33;100;95817.55;;;;
2019/10/30 00:34:48;;;;;;;31.75;22.85;;;;;;;6.33;100;95817.55;;;;
2019/10/30 00:35:49;;;;;;;31.75;22.85;;;;;;;6.33;100;95817.55;;;;
2019/10/30 00:36:50;;;;;;;31.75;22.85;;;;;;;6.33;100;95817.55;;;;
2019/10/30 00:37:51;;;;;;;31.75;22.85;;;;;;;6.33;100;95817.55;;;;
2019/10/30 00:38:53;;;;;;;31.75;22.85;;;;;;;6.33;100;95817.55;;;;
2019/10/30 00:39:54;;;;;;;31.75;22.85;;;;;;;6.33;100;95817.55;;;;
2019/10/30 00:40:55;;;;;;;31.75;22.85;;;;;;;6.33;100;95817.55;;;;
2019/10/30 00:41:56;;;;;;;31.75;22.85;;;;;;;6.33;100;95817.55;;;;
2019/10/30 00:42:57;;;;;;;31.75;22.85;;;;;;;6.33;100;95817.55;;;;
2019/10/30 00:43:58;;;;;;;31.75;22.85;;;;;;;6.33;100;95817.55;;;;
2019/10/30 00:44:59;;;;;;;26.5;20.7;;;;;;;6.36;100;95826.15;;;;
2019/10/30 00:46:00;;;;;;;26.5;20.7;;;;;;;6.36;100;95826.15;;;;
2019/10/30 00:47:02;;;;;;;26.5;20.7;;;;;;;6.36;100;95826.15;;;;
2019/10/30 00:48:03;;;;;;;26.5;20.7;;;;;;;6.36;100;95826.15;;;;
2019/10/30 00:49:04;;;;;;;26.5;20.7;;;;;;;6.36;100;95826.15;;;;
2019/10/30 00:50:05;;;;;;;26.5;20.7;;;;;;;6.36;100;95826.15;;;;
2019/10/30 00:51:07;;;;;;;26.5;20.7;;;;;;;6.36;100;95826.15;;;;
2019/10/30 00:52:08;;;;;;;26.5;20.7;;;;;;;6.36;100;95826.15;;;;
2019/10/30 00:53:09;;;;;;;26.5;20.7;;;;;;;6.36;100;95826.15;;;;
2019/10/30 00:54:10;;;;;;;26.5;20.7;;;;;;;6.36;100;95826.15;;;;
2019/10/30 00:55:11;;;;;;;30;22.1;;;;;;;6.34;100;95821.08;;;;
2019/10/30 00:56:12;;;;;;;30;22.1;;;;;;;6.34;100;95821.08;;;;
2019/10/30 00:57:14;;;;;;;30;22.1;;;;;;;6.34;100;95821.08;;;;
2019/10/30 00:58:15;;;;;;;30;22.1;;;;;;;6.34;100;95821.08;;;;
2019/10/30 00:59:16;;;;;;;30;22.1;;;;;;;6.34;100;95821.08;;;;
2019/10/30 01:00:17;;;;;;;30;22.1;;;;;;;6.34;100;95821.08;;;;
2019/10/30 01:01:18;;;;;;;30;22.1;;;;;;;6.34;100;95821.08;;;;
2019/10/30 01:02:19;;;;;;;30;22.1;;;;;;;6.34;100;95821.08;;;;
2019/10/30 01:03:20;;;;;;;30;22.1;;;;;;;6.34;100;95821.08;;;;
2019/10/30 01:04:22;;;;;;;30;22.1;;;;;;;6.34;100;95821.08;;;;
2019/10/30 01:05:23;;;;;;;30;22.1;;;;;;;6.34;100;95821.08;;;;
2019/10/30 01:06:24;;;;;;;26.65;21.2;;;;;;;6.36;100;95841.41;;;;
2019/10/30 01:07:25;;;;;;;26.65;21.2;;;;;;;6.36;100;95841.41;;;;
2019/10/30 01:08:26;;;;;;;26.65;21.2;;;;;;;6.36;100;95841.41;;;;
2019/10/30 01:09:27;;;;;;;26.65;21.2;;;;;;;6.36;100;95841.41;;;;
2019/10/30 01:10:28;;;;;;;26.65;21.2;;;;;;;6.36;100;95841.41;;;;
2019/10/30 01:12:33;;;;;;;26.65;21.2;;;;;;;6.36;100;95841.41;;;;
2019/10/30 01:13:34;;;;;;;26.65;21.2;;;;;;;6.36;100;95841.41;;;;
2019/10/30 01:14:35;;;;;;;26.65;21.2;;;;;;;6.36;100;95841.41;;;;
2019/10/30 01:15:36;;;;;;;26.65;21.2;;;;;;;6.36;100;95841.41;;;;
2019/10/30 01:16:37;;;;;;;30.75;22.25;;;;;;;6.32;100;95849.44;;;;
2019/10/30 01:17:38;;;;;;;30.75;22.25;;;;;;;6.32;100;95849.44;;;;
2019/10/30 01:18:40;;;;;;;30.75;22.25;;;;;;;6.32;100;95849.44;;;;
2019/10/30 01:19:41;;;;;;;30.75;22.25;;;;;;;6.32;100;95849.44;;;;
2019/10/30 01:20:42;;;;;;;30.75;22.25;;;;;;;6.32;100;95849.44;;;;
2019/10/30 01:21:43;;;;;;;30.75;22.25;;;;;;;6.32;100;95849.44;;;;
2019/10/30 01:22:44;;;;;;;30.75;22.25;;;;;;;6.32;100;95849.44;;;;
2019/10/30 01:23:45;;;;;;;30.75;22.25;;;;;;;6.32;100;95849.44;;;;
2019/10/30 01:24:46;;;;;;;30.75;22.25;;;;;;;6.32;100;95849.44;;;;
2019/10/30 01:25:47;;;;;;;30.75;22.25;;;;;;;6.32;100;95849.44;;;;
2019/10/30 01:26:49;;;;;;;27.3;21.35;;;;;;;6.36;100;95837.38;;;;
2019/10/30 01:27:50;;;;;;;27.3;21.35;;;;;;;6.36;100;95837.38;;;;
2019/10/30 01:28:51;;;;;;;27.3;21.35;;;;;;;6.36;100;95837.38;;;;
2019/10/30 01:29:52;;;;;;;27.3;21.35;;;;;;;6.36;100;95837.38;;;;
2019/10/30 01:30:53;;;;;;;27.3;21.35;;;;;;;6.36;100;95837.38;;;;
2019/10/30 01:31:54;;;;;;;27.3;21.35;;;;;;;6.36;100;95837.38;;;;
2019/10/30 01:32:55;;;;;;;27.3;21.35;;;;;;;6.36;100;95837.38;;;;
2019/10/30 01:33:57;;;;;;;27.3;21.35;;;;;;;6.36;100;95837.38;;;;
2019/10/30 01:34:58;;;;;;;27.3;21.35;;;;;;;6.36;100;95837.38;;;;
2019/10/30 01:35:59;;;;;;;27.3;21.35;;;;;;;6.36;100;95837.38;;;;
2019/10/30 01:37:00;;;;;;;27.3;21.35;;;;;;;6.36;100;95837.38;;;;
2019/10/30 01:38:01;;;;;;;29.75;22.15;;;;;;;6.32;100;95821.28;;;;
2019/10/30 01:39:03;;;;;;;29.75;22.15;;;;;;;6.32;100;95821.28;;;;
2019/10/30 01:40:07;;;;;;;29.75;22.15;;;;;;;6.32;100;95821.28;;;;
2019/10/30 01:41:09;;;;;;;29.75;22.15;;;;;;;6.32;100;95821.28;;;;
2019/10/30 01:42:10;;;;;;;29.75;22.15;;;;;;;6.32;100;95821.28;;;;
2019/10/30 01:43:11;;;;;;;29.75;22.15;;;;;;;6.32;100;95821.28;;;;
2019/10/30 01:44:12;;;;;;;29.75;22.15;;;;;;;6.32;100;95821.28;;;;
2019/10/30 01:45:14;;;;;;;29.75;22.15;;;;;;;6.32;100;95821.28;;;;
2019/10/30 01:47:26;;;;;;;29.75;22.15;;;;;;;6.32;100;95821.28;;;;
2019/10/30 01:48:40;;;;;;;29.4;22.45;;;;;;;6.37;100;95812.62;;;;
2019/10/30 01:49:47;;;;;;;29.4;22.45;;;;;;;6.37;100;95812.62;;;;
2019/10/30 01:50:48;;;;;;;29.4;22.45;;;;;;;6.37;100;95812.62;;;;
2019/10/30 01:51:49;;;;;;;29.4;22.45;;;;;;;6.37;100;95812.62;;;;
2019/10/30 01:52:50;;;;;;;29.4;22.45;;;;;;;6.37;100;95812.62;;;;
2019/10/30 01:53:51;;;;;;;29.4;22.45;;;;;;;6.37;100;95812.62;;;;
2019/10/30 01:54:52;;;;;;;29.4;22.45;;;;;;;6.37;100;95812.62;;;;
2019/10/30 01:55:54;;;;;;;29.4;22.45;;;;;;;6.37;100;95812.62;;;;
2019/10/30 01:56:55;;;;;;;29.4;22.45;;;;;;;6.37;100;95812.62;;;;
2019/10/30 01:57:56;;;;;;;29.4;22.45;;;;;;;6.37;100;95812.62;;;;
2019/10/30 01:58:57;;;;;;;32.45;23.25;;;;;;;6.32;100;95829.41;;;;
2019/10/30 01:59:58;;;;;;;32.45;23.25;;;;;;;6.32;100;95829.41;;;;
2019/10/30 02:00:59;;;;;;;32.45;23.25;;;;;;;6.32;100;95829.41;;;;
2019/10/30 02:02:01;;;;;;;32.45;23.25;;;;;;;6.32;100;95829.41;;;;
2019/10/30 02:03:02;;;;;;;32.45;23.25;;;;;;;6.32;100;95829.41;;;;
2019/10/30 02:04:03;;;;;;;32.45;23.25;;;;;;;6.32;100;95829.41;;;;
2019/10/30 02:05:04;;;;;;;32.45;23.25;;;;;;;6.32;100;95829.41;;;;
2019/10/30 02:06:05;;;;;;;32.45;23.25;;;;;;;6.32;100;95829.41;;;;
2019/10/30 02:07:07;;;;;;;32.45;23.25;;;;;;;6.32;100;95829.41;;;;
2019/10/30 02:08:08;;;;;;;32.45;23.25;;;;;;;6.32;100;95829.41;;;;
2019/10/30 02:09:09;;;;;;;32.35;25.1;;;;;;;6.35;100;95833.45;;;;
2019/10/30 02:10:10;;;;;;;32.35;25.1;;;;;;;6.35;100;95833.45;;;;
2019/10/30 02:11:12;;;;;;;32.35;25.1;;;;;;;6.35;100;95833.45;;;;
2019/10/30 02:12:13;;;;;;;32.35;25.1;;;;;;;6.35;100;95833.45;;;;
2019/10/30 02:13:14;;;;;;;32.35;25.1;;;;;;;6.35;100;95833.45;;;;
2019/10/30 02:14:15;;;;;;;32.35;25.1;;;;;;;6.35;100;95833.45;;;;
2019/10/30 02:15:17;;;;;;;32.35;25.1;;;;;;;6.35;100;95833.45;;;;
2019/10/30 02:16:18;;;;;;;32.35;25.1;;;;;;;6.35;100;95833.45;;;;
2019/10/30 02:17:19;;;;;;;32.35;25.1;;;;;;;6.35;100;95833.45;;;;
2019/10/30 02:18:20;;;;;;;32.35;25.1;;;;;;;6.35;100;95833.45;;;;
2019/10/30 02:19:21;;;;;;;32.35;25.1;;;;;;;6.35;100;95833.45;;;;
2019/10/30 02:20:22;;;;;;;35.45;24.35;;;;;;;6.33;100;95826.93;;;;
2019/10/30 02:21:24;;;;;;;35.45;24.35;;;;;;;6.33;100;95826.93;;;;
2019/10/30 02:22:25;;;;;;;35.45;24.35;;;;;;;6.33;100;95826.93;;;;
2019/10/30 02:23:26;;;;;;;35.45;24.35;;;;;;;6.33;100;95826.93;;;;
2019/10/30 02:24:27;;;;;;;35.45;24.35;;;;;;;6.33;100;95826.93;;;;
2019/10/30 02:25:29;;;;;;;35.45;24.35;;;;;;;6.33;100;95826.93;;;;
2019/10/30 02:26:30;;;;;;;35.45;24.35;;;;;;;6.33;100;95826.93;;;;
2019/10/30 02:27:31;;;;;;;35.45;24.35;;;;;;;6.33;100;95826.93;;;;
2019/10/30 02:29:12;;;;;;;35.45;24.35;;;;;;;6.33;100;95826.93;;;;
2019/10/30 02:31:26;;;;;;;35.45;24.35;;;;;;;6.33;100;95826.93;;;;
2019/10/30 02:32:33;;;;;;;31.25;23.75;;;;;;;6.34;100;95829.13;;;;
2019/10/30 02:33:35;;;;;;;31.25;23.75;;;;;;;6.34;100;95829.13;;;;
2019/10/30 02:34:37;;;;;;;31.25;23.75;;;;;;;6.34;100;95829.13;;;;
2019/10/30 02:35:38;;;;;;;31.25;23.75;;;;;;;6.34;100;95829.13;;;;
2019/10/30 02:36:40;;;;;;;31.25;23.75;;;;;;;6.34;100;95829.13;;;;
2019/10/30 02:37:41;;;;;;;31.25;23.75;;;;;;;6.34;100;95829.13;;;;
2019/10/30 02:38:47;;;;;;;31.25;23.75;;;;;;;6.34;100;95829.13;;;;
2019/10/30 02:39:48;;;;;;;31.25;23.75;;;;;;;6.34;100;95829.13;;;;
2019/10/30 02:40:49;;;;;;;31.25;23.75;;;;;;;6.34;100;95829.13;;;;
2019/10/30 02:41:50;;;;;;;30.4;23.35;;;;;;;6.29;100;95833.83;;;;
2019/10/30 02:42:51;;;;;;;30.4;23.35;;;;;;;6.29;100;95833.83;;;;
2019/10/30 02:43:52;;;;;;;30.4;23.35;;;;;;;6.29;100;95833.83;;;;
2019/10/30 02:44:53;;;;;;;30.4;23.35;;;;;;;6.29;100;95833.83;;;;
2019/10/30 02:45:55;;;;;;;30.4;23.35;;;;;;;6.29;100;95833.83;;;;
2019/10/30 02:46:56;;;;;;;30.4;23.35;;;;;;;6.29;100;95833.83;;;;
2019/10/30 02:47:57;;;;;;;30.4;23.35;;;;;;;6.29;100;95833.83;;;;
2019/10/30 02:48:58;;;;;;;30.4;23.35;;;;;;;6.29;100;95833.83;;;;
2019/10/30 02:49:59;;;;;;;30.4;23.35;;;;;;;6.29;100;95833.83;;;;
2019/10/30 02:51:01;;;;;;;30.4;23.35;;;;;;;6.29;100;95833.83;;;;
2019/10/30 02:52:02;;;;;;;37.25;23.85;;;;;;;6.28;100;95834.75;;;;
2019/10/30 02:53:03;;;;;;;37.25;23.85;;;;;;;6.28;100;95834.75;;;;
2019/10/30 02:54:04;;;;;;;37.25;23.85;;;;;;;6.28;100;95834.75;;;;
2019/10/30 02:55:05;;;;;;;37.25;23.85;;;;;;;6.28;100;95834.75;;;;
2019/10/30 02:56:07;;;;;;;37.25;23.85;;;;;;;6.28;100;95834.75;;;;
2019/10/30 02:57:08;;;;;;;37.25;23.85;;;;;;;6.28;100;95834.75;;;;
2019/10/30 02:58:09;;;;;;;37.25;23.85;;;;;;;6.28;100;95834.75;;;;
2019/10/30 02:59:11;;;;;;;37.25;23.85;;;;;;;6.28;100;95834.75;;;;
2019/10/30 03:00:14;;;;;;;37.25;23.85;;;;;;;6.28;100;95834.75;;;;
2019/10/30 03:01:15;;;;;;;37.25;23.85;;;;;;;6.28;100;95834.75;;;;
2019/10/30 03:02:17;;;;;;;30.55;23.2;;;;;;;6.18;100;95840.99;;;;
2019/10/30 03:03:18;;;;;;;30.55;23.2;;;;;;;6.18;100;95840.99;;;;
2019/10/30 03:04:19;;;;;;;30.55;23.2;;;;;;;6.18;100;95840.99;;;;
2019/10/30 03:05:20;;;;;;;30.55;23.2;;;;;;;6.18;100;95840.99;;;;
2019/10/30 03:06:21;;;;;;;30.55;23.2;;;;;;;6.18;100;95840.99;;;;
2019/10/30 03:07:23;;;;;;;30.55;23.2;;;;;;;6.18;100;95840.99;;;;
2019/10/30 03:08:24;;;;;;;30.55;23.2;;;;;;;6.18;100;95840.99;;;;
2019/10/30 03:09:25;;;;;;;30.55;23.2;;;;;;;6.18;100;95840.99;;;;
2019/10/30 03:10:26;;;;;;;30.55;23.2;;;;;;;6.18;100;95840.99;;;;
2019/10/30 03:11:27;;;;;;;30.55;23.2;;;;;;;6.18;100;95840.99;;;;
2019/10/30 03:12:28;;;;;;;30.55;23.2;;;;;;;6.18;100;95840.99;;;;
2019/10/30 03:13:30;;;;;;;34.10001;24.85;;;;;;;6.16;100;95824.27;;;;
2019/10/30 03:14:31;;;;;;;34.10001;24.85;;;;;;;6.16;100;95824.27;;;;
2019/10/30 03:15:32;;;;;;;34.10001;24.85;;;;;;;6.16;100;95824.27;;;;
2019/10/30 03:16:34;;;;;;;34.10001;24.85;;;;;;;6.16;100;95824.27;;;;
2019/10/30 03:17:35;;;;;;;34.10001;24.85;;;;;;;6.16;100;95824.27;;;;
2019/10/30 03:18:36;;;;;;;34.10001;24.85;;;;;;;6.16;100;95824.27;;;;
2019/10/30 03:19:37;;;;;;;34.10001;24.85;;;;;;;6.16;100;95824.27;;;;
2019/10/30 03:20:38;;;;;;;34.10001;24.85;;;;;;;6.16;100;95824.27;;;;
2019/10/30 03:21:39;;;;;;;34.10001;24.85;;;;;;;6.16;100;95824.27;;;;
2019/10/30 03:22:41;;;;;;;34.10001;24.85;;;;;;;6.16;100;95824.27;;;;
2019/10/30 03:23:42;;;;;;;31.1;23.75;;;;;;;6.09;100;95822.97;;;;
2019/10/30 03:24:43;;;;;;;31.1;23.75;;;;;;;6.09;100;95822.97;;;;
2019/10/30 03:25:44;;;;;;;31.1;23.75;;;;;;;6.09;100;95822.97;;;;
2019/10/30 03:26:45;;;;;;;31.1;23.75;;;;;;;6.09;100;95822.97;;;;
2019/10/30 03:27:46;;;;;;;31.1;23.75;;;;;;;6.09;100;95822.97;;;;
2019/10/30 03:28:49;;;;;;;31.1;23.75;;;;;;;6.09;100;95822.97;;;;
2019/10/30 03:29:55;;;;;;;31.1;23.75;;;;;;;6.09;100;95822.97;;;;
2019/10/30 03:30:58;;;;;;;31.1;23.75;;;;;;;6.09;100;95822.97;;;;
2019/10/30 03:32:00;;;;;;;31.1;23.75;;;;;;;6.09;100;95822.97;;;;
2019/10/30 03:33:01;;;;;;;31.1;23.75;;;;;;;6.09;100;95822.97;;;;
2019/10/30 03:34:02;;;;;;;32.45;23.45;;;;;;;6.11;100;95825.45;;;;
2019/10/30 03:35:03;;;;;;;32.45;23.45;;;;;;;6.11;100;95825.45;;;;
2019/10/30 03:36:05;;;;;;;32.45;23.45;;;;;;;6.11;100;95825.45;;;;
2019/10/30 03:37:06;;;;;;;32.45;23.45;;;;;;;6.11;100;95825.45;;;;
2019/10/30 03:38:07;;;;;;;32.45;23.45;;;;;;;6.11;100;95825.45;;;;
2019/10/30 03:39:08;;;;;;;32.45;23.45;;;;;;;6.11;100;95825.45;;;;
2019/10/30 03:40:09;;;;;;;32.45;23.45;;;;;;;6.11;100;95825.45;;;;
2019/10/30 03:41:10;;;;;;;32.45;23.45;;;;;;;6.11;100;95825.45;;;;
2019/10/30 03:42:12;;;;;;;32.45;23.45;;;;;;;6.11;100;95825.45;;;;
2019/10/30 03:43:13;;;;;;;32.45;23.45;;;;;;;6.11;100;95825.45;;;;
2019/10/30 03:44:16;;;;;;;32.45;23.45;;;;;;;6.11;100;95825.45;;;;
2019/10/30 03:45:17;;;;;;;32.24999;24.45;;;;;;;6.04;100;95825.42;;;;
2019/10/30 03:46:18;;;;;;;32.24999;24.45;;;;;;;6.04;100;95825.42;;;;
2019/10/30 03:47:19;;;;;;;32.24999;24.45;;;;;;;6.04;100;95825.42;;;;
2019/10/30 03:48:25;;;;;;;32.24999;24.45;;;;;;;6.04;100;95825.42;;;;
2019/10/30 03:49:30;;;;;;;32.24999;24.45;;;;;;;6.04;100;95825.42;;;;
2019/10/30 03:50:32;;;;;;;32.24999;24.45;;;;;;;6.04;100;95825.42;;;;
2019/10/30 03:51:37;;;;;;;32.24999;24.45;;;;;;;6.04;100;95825.42;;;;
2019/10/30 03:52:40;;;;;;;32.24999;24.45;;;;;;;6.04;100;95825.42;;;;
2019/10/30 03:53:41;;;;;;;32.24999;24.45;;;;;;;6.04;100;95825.42;;;;
2019/10/30 03:54:52;;;;;;;32.24999;24.45;;;;;;;6.04;100;95825.42;;;;
2019/10/30 03:55:59;;;;;;;36.9;25.75;;;;;;;6.05;100;95811.89;;;;
2019/10/30 03:57:05;;;;;;;36.9;25.75;;;;;;;6.05;100;95811.89;;;;
2019/10/30 03:58:07;;;;;;;36.9;25.75;;;;;;;6.05;100;95811.89;;;;
2019/10/30 03:59:10;;;;;;;36.9;25.75;;;;;;;6.05;100;95811.89;;;;
2019/10/30 04:00:11;;;;;;;36.9;25.75;;;;;;;6.05;100;95811.89;;;;
2019/10/30 04:01:14;;;;;;;36.9;25.75;;;;;;;6.05;100;95811.89;;;;
2019/10/30 04:02:16;;;;;;;36.9;25.75;;;;;;;6.05;100;95811.89;;;;
2019/10/30 04:03:18;;;;;;;36.9;25.75;;;;;;;6.05;100;95811.89;;;;
2019/10/30 04:04:19;;;;;;;36.9;25.75;;;;;;;6.05;100;95811.89;;;;
2019/10/30 04:05:20;;;;;;;36.9;25.75;;;;;;;6.05;100;95811.89;;;;
2019/10/30 04:06:21;;;;;;;36.9;25.75;;;;;;;6.05;100;95811.89;;;;
2019/10/30 04:07:25;;;;;;;36.9;25.75;;;;;;;6.05;100;95811.89;;;;
2019/10/30 04:08:26;;;;;;;36.9;25.75;;;;;;;6.05;100;95811.89;;;;
2019/10/30 04:09:27;;;;;;;36.9;25.75;;;;;;;6.05;100;95811.89;;;;
2019/10/30 04:10:28;;;;;;;36.9;25.75;;;;;;;6.05;100;95811.89;;;;
2019/10/30 04:11:29;;;;;;;36.9;25.75;;;;;;;6.05;100;95811.89;;;;
2019/10/30 04:12:30;;;;;;;36.9;25.75;;;;;;;6.05;100;95811.89;;;;
2019/10/30 04:13:32;;;;;;;36.9;25.75;;;;;;;6.05;100;95811.89;;;;
2019/10/30 04:14:33;;;;;;;36.9;25.75;;;;;;;6.05;100;95811.89;;;;
2019/10/30 04:15:34;;;;;;;36.9;25.75;;;;;;;6.05;100;95811.89;;;;
2019/10/30 04:16:35;;;;;;;36.9;25.75;;;;;;;6.05;100;95811.89;;;;
2019/10/30 04:17:37;;;;;;;35.55;25;;;;;;;6.01;100;95813.72;;;;
2019/10/30 04:18:39;;;;;;;35.55;25;;;;;;;6.01;100;95813.72;;;;
2019/10/30 04:19:40;;;;;;;35.55;25;;;;;;;6.01;100;95813.72;;;;
2019/10/30 04:20:41;;;;;;;35.55;25;;;;;;;6.01;100;95813.72;;;;
2019/10/30 04:21:43;;;;;;;35.55;25;;;;;;;6.01;100;95813.72;;;;
2019/10/30 04:22:44;;;;;;;35.55;25;;;;;;;6.01;100;95813.72;;;;
2019/10/30 04:23:45;;;;;;;35.55;25;;;;;;;6.01;100;95813.72;;;;
2019/10/30 04:24:47;;;;;;;35.55;25;;;;;;;6.01;100;95813.72;;;;
2019/10/30 04:25:48;;;;;;;35.55;25;;;;;;;6.01;100;95813.72;;;;
2019/10/30 04:26:49;;;;;;;35.55;25;;;;;;;6.01;100;95813.72;;;;
2019/10/30 04:27:50;;;;;;;35.10001;26.1;;;;;;;5.88;100;95819;;;;
2019/10/30 04:28:51;;;;;;;35.10001;26.1;;;;;;;5.88;100;95819;;;;
2019/10/30 04:29:53;;;;;;;35.10001;26.1;;;;;;;5.88;100;95819;;;;
2019/10/30 04:30:54;;;;;;;35.10001;26.1;;;;;;;5.88;100;95819;;;;
2019/10/30 04:31:55;;;;;;;35.10001;26.1;;;;;;;5.88;100;95819;;;;
2019/10/30 04:32:56;;;;;;;35.10001;26.1;;;;;;;5.88;100;95819;;;;
2019/10/30 04:33:57;;;;;;;35.10001;26.1;;;;;;;5.88;100;95819;;;;
2019/10/30 04:34:59;;;;;;;35.10001;26.1;;;;;;;5.88;100;95819;;;;
2019/10/30 04:36:01;;;;;;;35.10001;26.1;;;;;;;5.88;100;95819;;;;
2019/10/30 04:37:03;;;;;;;35.10001;26.1;;;;;;;5.88;100;95819;;;;
2019/10/30 04:39:03;;;;;;;41.15;27.55;;;;;;;5.88;100;95811.47;;;;
2019/10/30 04:40:11;;;;;;;41.15;27.55;;;;;;;5.88;100;95811.47;;;;
2019/10/30 04:41:17;;;;;;;41.15;27.55;;;;;;;5.88;100;95811.47;;;;
2019/10/30 04:42:27;;;;;;;41.15;27.55;;;;;;;5.88;100;95811.47;;;;
2019/10/30 04:43:33;;;;;;;41.15;27.55;;;;;;;5.88;100;95811.47;;;;
2019/10/30 04:44:34;;;;;;;41.15;27.55;;;;;;;5.88;100;95811.47;;;;
2019/10/30 04:45:41;;;;;;;41.15;27.55;;;;;;;5.88;100;95811.47;;;;
2019/10/30 04:46:48;;;;;;;41.15;27.55;;;;;;;5.88;100;95811.47;;;;
2019/10/30 04:47:49;;;;;;;41.15;27.55;;;;;;;5.88;100;95811.47;;;;
2019/10/30 04:48:56;;;;;;;41.45;27.85;;;;;;;5.85;100;95831.01;;;;
2019/10/30 04:50:03;;;;;;;41.45;27.85;;;;;;;5.85;100;95831.01;;;;
2019/10/30 04:51:14;;;;;;;41.45;27.85;;;;;;;5.85;100;95831.01;;;;
2019/10/30 04:55:55;;;;;;;41.45;27.85;;;;;;;5.85;100;95831.01;;;;
2019/10/30 04:57:25;;;;;;;41.45;27.85;;;;;;;5.85;100;95831.01;;;;
2019/10/30 04:59:15;;;;;;;39.10001;27.9;;;;;;;5.9;100;95821.37;;;;
2019/10/30 05:00:25;;;;;;;39.10001;27.9;;;;;;;5.9;100;95821.37;;;;
2019/10/30 05:01:26;;;;;;;39.10001;27.9;;;;;;;5.9;100;95821.37;;;;
2019/10/30 05:02:27;;;;;;;39.10001;27.9;;;;;;;5.9;100;95821.37;;;;
2019/10/30 05:03:33;;;;;;;39.10001;27.9;;;;;;;5.9;100;95821.37;;;;
2019/10/30 05:04:38;;;;;;;39.10001;27.9;;;;;;;5.9;100;95821.37;;;;
2019/10/30 05:05:43;;;;;;;39.10001;27.9;;;;;;;5.9;100;95821.37;;;;
2019/10/30 05:06:57;;;;;;;39.10001;27.9;;;;;;;5.9;100;95821.37;;;;
2019/10/30 05:08:15;;;;;;;39.10001;27.9;;;;;;;5.9;100;95821.37;;;;
2019/10/30 05:09:20;;;;;;;39.10001;27.9;;;;;;;5.9;100;95821.37;;;;
2019/10/30 05:10:24;;;;;;;42.75;29.3;;;;;;;5.9;100;95840.12;;;;
2019/10/30 05:11:26;;;;;;;42.75;29.3;;;;;;;5.9;100;95840.12;;;;
2019/10/30 05:12:27;;;;;;;42.75;29.3;;;;;;;5.9;100;95840.12;;;;
2019/10/30 05:13:28;;;;;;;42.75;29.3;;;;;;;5.9;100;95840.12;;;;
2019/10/30 05:14:29;;;;;;;42.75;29.3;;;;;;;5.9;100;95840.12;;;;
2019/10/30 05:15:32;;;;;;;42.75;29.3;;;;;;;5.9;100;95840.12;;;;
2019/10/30 05:17:41;;;;;;;42.75;29.3;;;;;;;5.9;100;95840.12;;;;
2019/10/30 05:18:44;;;;;;;42.75;29.3;;;;;;;5.9;100;95840.12;;;;
2019/10/30 05:19:47;;;;;;;42.75;29.3;;;;;;;5.9;100;95840.12;;;;
2019/10/30 05:20:49;;;;;;;40.05;29.1;;;;;;;5.96;100;95842.55;;;;
2019/10/30 05:21:50;;;;;;;40.05;29.1;;;;;;;5.96;100;95842.55;;;;
2019/10/30 05:22:51;;;;;;;40.05;29.1;;;;;;;5.96;100;95842.55;;;;
2019/10/30 05:23:53;;;;;;;40.05;29.1;;;;;;;5.96;100;95842.55;;;;
2019/10/30 05:24:54;;;;;;;40.05;29.1;;;;;;;5.96;100;95842.55;;;;
2019/10/30 05:25:55;;;;;;;40.05;29.1;;;;;;;5.96;100;95842.55;;;;
2019/10/30 05:26:56;;;;;;;40.05;29.1;;;;;;;5.96;100;95842.55;;;;
2019/10/30 05:27:57;;;;;;;40.05;29.1;;;;;;;5.96;100;95842.55;;;;
2019/10/30 05:28:58;;;;;;;40.05;29.1;;;;;;;5.96;100;95842.55;;;;
2019/10/30 05:29:59;;;;;;;40.05;29.1;;;;;;;5.96;100;95842.55;;;;
2019/10/30 05:31:00;;;;;;;40.05;29.1;;;;;;;5.96;100;95842.55;;;;
2019/10/30 05:32:02;;;;;;;46.19999;29.9;;;;;;;5.92;100;95855.5;;;;
2019/10/30 05:33:03;;;;;;;46.19999;29.9;;;;;;;5.92;100;95855.5;;;;
2019/10/30 05:34:04;;;;;;;46.19999;29.9;;;;;;;5.92;100;95855.5;;;;
2019/10/30 05:35:05;;;;;;;46.19999;29.9;;;;;;;5.92;100;95855.5;;;;
2019/10/30 05:36:07;;;;;;;46.19999;29.9;;;;;;;5.92;100;95855.5;;;;
2019/10/30 05:37:08;;;;;;;46.19999;29.9;;;;;;;5.92;100;95855.5;;;;
2019/10/30 05:38:10;;;;;;;46.19999;29.9;;;;;;;5.92;100;95855.5;;;;
2019/10/30 05:39:23;;;;;;;46.19999;29.9;;;;;;;5.92;100;95855.5;;;;
2019/10/30 05:40:24;;;;;;;46.19999;29.9;;;;;;;5.92;100;95855.5;;;;
2019/10/30 05:41:25;;;;;;;46.19999;29.9;;;;;;;5.92;100;95855.5;;;;
2019/10/30 05:42:26;;;;;;;44.69999;30.25;;;;;;;5.9;100;95863.01;;;;
2019/10/30 05:43:28;;;;;;;44.69999;30.25;;;;;;;5.9;100;95863.01;;;;
2019/10/30 05:44:29;;;;;;;44.69999;30.25;;;;;;;5.9;100;95863.01;;;;
2019/10/30 05:45:30;;;;;;;44.69999;30.25;;;;;;;5.9;100;95863.01;;;;
2019/10/30 05:46:31;;;;;;;44.69999;30.25;;;;;;;5.9;100;95863.01;;;;
2019/10/30 05:47:32;;;;;;;44.69999;30.25;;;;;;;5.9;100;95863.01;;;;
2019/10/30 05:48:33;;;;;;;44.69999;30.25;;;;;;;5.9;100;95863.01;;;;
2019/10/30 05:49:34;;;;;;;44.69999;30.25;;;;;;;5.9;100;95863.01;;;;
2019/10/30 05:50:36;;;;;;;44.69999;30.25;;;;;;;5.9;100;95863.01;;;;
2019/10/30 05:51:37;;;;;;;44.69999;30.25;;;;;;;5.9;100;95863.01;;;;
2019/10/30 05:52:38;;;;;;;42.05;30;;;;;;;5.79;100;95871.42;;;;
2019/10/30 05:53:39;;;;;;;42.05;30;;;;;;;5.79;100;95871.42;;;;
2019/10/30 05:54:40;;;;;;;42.05;30;;;;;;;5.79;100;95871.42;;;;
2019/10/30 05:55:42;;;;;;;42.05;30;;;;;;;5.79;100;95871.42;;;;
2019/10/30 05:56:43;;;;;;;42.05;30;;;;;;;5.79;100;95871.42;;;;
2019/10/30 05:57:45;;;;;;;42.05;30;;;;;;;5.79;100;95871.42;;;;
2019/10/30 05:58:46;;;;;;;42.05;30;;;;;;;5.79;100;95871.42;;;;
2019/10/30 05:59:48;;;;;;;42.05;30;;;;;;;5.79;100;95871.42;;;;
2019/10/30 06:00:49;;;;;;;42.05;30;;;;;;;5.79;100;95871.42;;;;
2019/10/30 06:01:50;;;;;;;42.05;30;;;;;;;5.79;100;95871.42;;;;
2019/10/30 06:02:52;;;;;;;42.05;30;;;;;;;5.79;100;95871.42;;;;
2019/10/30 06:03:53;;;;;;;41.75;28.85;;;;;;;5.81;100;95870.31;;;;
2019/10/30 06:04:54;;;;;;;41.75;28.85;;;;;;;5.81;100;95870.31;;;;
2019/10/30 06:05:55;;;;;;;41.75;28.85;;;;;;;5.81;100;95870.31;;;;
2019/10/30 06:06:57;;;;;;;41.75;28.85;;;;;;;5.81;100;95870.31;;;;
2019/10/30 06:07:58;;;;;;;41.75;28.85;;;;;;;5.81;100;95870.31;;;;
2019/10/30 06:08:59;;;;;;;41.75;28.85;;;;;;;5.81;100;95870.31;;;;
2019/10/30 06:10:00;;;;;;;41.75;28.85;;;;;;;5.81;100;95870.31;;;;
2019/10/30 06:11:02;;;;;;;41.75;28.85;;;;;;;5.81;100;95870.31;;;;
2019/10/30 06:12:03;;;;;;;41.75;28.85;;;;;;;5.81;100;95870.31;;;;
2019/10/30 06:13:04;;;;;;;41.75;28.85;;;;;;;5.81;100;95870.31;;;;
2019/10/30 06:14:05;;;;;;;44.9;30.25;;;;;;;5.79;100;95888.84;;;;
2019/10/30 06:15:06;;;;;;;44.9;30.25;;;;;;;5.79;100;95888.84;;;;
2019/10/30 06:16:08;;;;;;;44.9;30.25;;;;;;;5.79;100;95888.84;;;;
2019/10/30 06:17:09;;;;;;;44.9;30.25;;;;;;;5.79;100;95888.84;;;;
2019/10/30 06:18:11;;;;;;;44.9;30.25;;;;;;;5.79;100;95888.84;;;;
2019/10/30 06:19:14;;;;;;;44.9;30.25;;;;;;;5.79;100;95888.84;;;;
2019/10/30 06:21:13;;;;;;;44.9;30.25;;;;;;;5.79;100;95888.84;;;;
2019/10/30 06:22:14;;;;;;;44.9;30.25;;;;;;;5.79;100;95888.84;;;;
2019/10/30 06:23:15;;;;;;;44.9;30.25;;;;;;;5.79;100;95888.84;;;;
2019/10/30 06:24:16;;;;;;;42.05;29.95;;;;;;;5.85;100;95901.51;;;;
2019/10/30 06:25:17;;;;;;;42.05;29.95;;;;;;;5.85;100;95901.51;;;;